Time;durP1;ratioP1;P1;durP2;ratioP2;P2;SDS_P1;SDS_P2;PMS_P1;PMS_P2;Temp;Humidity;BMP_temperature;BMP_pressure;BME280_temperature;BME280_humidity;BME280_pressure;Samples;Min_cycle;Max_cycle;Signal;HPM_P1;HPM_P2
2022/12/29 00:01:36;;;;;;;3.60;2.58;;;;;;;;;;4998898;28;20214;-68
2022/12/29 00:04:02;;;;;;;3.00;2.70;;;;;;;;;;5009943;28;20205;-68
2022/12/29 00:06:28;;;;;;;3.63;2.80;;;;;;;;;;5003274;28;20200;-68
2022/12/29 00:08:53;;;;;;;3.17;2.42;;;;;;;;;;5002470;28;20506;-68
2022/12/29 00:11:22;;;;;;;4.28;2.60;;;;;;;;;;5006079;28;20210;-68
2022/12/29 00:16:34;;;;;;;4.05;2.60;;;;;;;;;;5004633;28;20512;-68
2022/12/29 00:19:00;;;;;;;3.65;2.75;;;;;;;;;;5009061;28;20209;-67
2022/12/29 00:35:24;;;;;;;2.13;1.83;;;;;;;;;;5003329;28;20318;-68
2022/12/29 00:46:01;;;;;;;2.78;2.47;;;;;;;;;;5008093;28;20217;-68
2022/12/29 00:51:11;;;;;;;4.50;2.65;;;;;;;;;;4996810;28;20606;-68
2022/12/29 00:53:36;;;;;;;3.28;2.50;;;;;;;;;;4996356;28;20649;-71
2022/12/29 00:56:01;;;;;;;2.92;2.38;;;;;;;;;;5001243;28;20187;-68
2022/12/29 00:58:30;;;;;;;2.55;2.15;;;;;;;;;;5006171;28;20199;-68
2022/12/29 01:01:07;;;;;;;2.45;2.13;;;;;;;;;;5011480;28;20202;-68
2022/12/29 01:03:33;;;;;;;3.42;2.10;;;;;;;;;;5005714;28;20274;-68
2022/12/29 01:06:07;;;;;;;2.60;2.13;;;;;;;;;;5015524;28;20398;-68
2022/12/29 01:08:33;;;;;;;2.50;2.17;;;;;;;;;;5007209;28;20252;-68
2022/12/29 01:11:04;;;;;;;5.60;2.35;;;;;;;;;;5003542;28;20561;-68
2022/12/29 01:13:30;;;;;;;1.85;1.75;;;;;;;;;;5011822;28;20190;-67
2022/12/29 01:15:56;;;;;;;3.45;2.10;;;;;;;;;;5009073;28;20193;-68
2022/12/29 01:18:23;;;;;;;4.30;2.10;;;;;;;;;;5011407;28;20741;-68
2022/12/29 01:20:48;;;;;;;3.58;1.83;;;;;;;;;;5008361;28;20624;-67
2022/12/29 01:23:14;;;;;;;1.90;1.73;;;;;;;;;;4998854;28;20326;-68
2022/12/29 01:25:39;;;;;;;1.73;1.63;;;;;;;;;;5008560;28;20340;-68
2022/12/29 01:28:06;;;;;;;3.15;1.73;;;;;;;;;;5007959;28;20185;-68
2022/12/29 01:30:32;;;;;;;3.45;2.03;;;;;;;;;;5002942;28;20220;-68
2022/12/29 01:32:58;;;;;;;1.92;1.75;;;;;;;;;;5003069;28;20262;-68
2022/12/29 01:35:24;;;;;;;2.88;2.05;;;;;;;;;;5004109;28;20203;-68
2022/12/29 01:37:49;;;;;;;2.13;1.88;;;;;;;;;;5002563;28;20297;-69
2022/12/29 01:40:14;;;;;;;3.80;2.10;;;;;;;;;;5002707;28;20727;-68
2022/12/29 01:42:40;;;;;;;4.63;1.80;;;;;;;;;;4998153;28;20194;-68
2022/12/29 01:45:11;;;;;;;1.70;1.58;;;;;;;;;;5008968;28;20198;-68
2022/12/29 01:48:00;;;;;;;2.78;1.80;;;;;;;;;;5003793;28;20226;-68
2022/12/29 01:50:30;;;;;;;2.38;1.75;;;;;;;;;;5008681;28;20238;-68
2022/12/29 01:53:18;;;;;;;3.80;1.70;;;;;;;;;;5004507;28;20266;-68
2022/12/29 01:55:53;;;;;;;2.72;1.65;;;;;;;;;;4998316;28;20554;-68
2022/12/29 01:58:22;;;;;;;1.52;1.20;;;;;;;;;;4992698;28;20720;-69
2022/12/29 02:00:48;;;;;;;2.20;1.25;;;;;;;;;;5005629;28;20209;-68
2022/12/29 02:03:15;;;;;;;2.00;1.25;;;;;;;;;;5000352;28;20183;-68
2022/12/29 02:05:52;;;;;;;1.75;1.08;;;;;;;;;;5003795;28;20617;-68
2022/12/29 02:08:20;;;;;;;1.80;0.80;;;;;;;;;;4983848;28;20208;-68
2022/12/29 02:10:46;;;;;;;1.77;1.00;;;;;;;;;;5009521;28;20212;-68
2022/12/29 02:13:16;;;;;;;2.40;1.13;;;;;;;;;;5007312;28;20191;-68
2022/12/29 02:15:57;;;;;;;2.75;0.90;;;;;;;;;;5007760;28;20195;-68
2022/12/29 02:18:50;;;;;;;2.47;1.00;;;;;;;;;;5000141;28;20642;-70
2022/12/29 02:21:52;;;;;;;2.53;1.00;;;;;;;;;;5009626;28;20662;-67
2022/12/29 02:24:46;;;;;;;2.25;0.80;;;;;;;;;;4999766;28;20215;-67
2022/12/29 02:27:29;;;;;;;2.03;0.93;;;;;;;;;;5002212;28;20245;-67
2022/12/29 02:30:12;;;;;;;2.08;1.00;;;;;;;;;;5001943;28;20266;-68
2022/12/29 02:33:05;;;;;;;1.10;0.90;;;;;;;;;;5014125;28;20305;-68
2022/12/29 02:35:37;;;;;;;2.42;1.15;;;;;;;;;;5001642;28;20658;-68
2022/12/29 02:38:13;;;;;;;1.92;1.00;;;;;;;;;;5003379;28;20189;-68
2022/12/29 02:41:02;;;;;;;1.25;1.15;;;;;;;;;;5001506;28;20199;-68
2022/12/29 02:43:47;;;;;;;2.22;1.55;;;;;;;;;;5008239;28;20191;-68
2022/12/29 02:46:23;;;;;;;3.67;1.55;;;;;;;;;;5014387;28;20183;-67
2022/12/29 02:49:34;;;;;;;2.72;1.80;;;;;;;;;;5009405;28;20191;-67
2022/12/29 02:52:09;;;;;;;2.00;1.80;;;;;;;;;;4970337;28;20787;-68
2022/12/29 02:54:42;;;;;;;2.42;1.80;;;;;;;;;;5007714;28;20190;-68
2022/12/29 02:57:22;;;;;;;2.15;1.70;;;;;;;;;;5000822;28;20213;-68
2022/12/29 03:00:13;;;;;;;4.00;1.92;;;;;;;;;;5015438;28;20225;-68
2022/12/29 03:03:18;;;;;;;1.70;1.60;;;;;;;;;;5007520;28;20252;-67
2022/12/29 03:05:53;;;;;;;2.90;1.65;;;;;;;;;;5015431;28;20320;-68
2022/12/29 03:08:24;;;;;;;1.75;1.50;;;;;;;;;;5006268;28;20189;-67
2022/12/29 03:11:03;;;;;;;2.03;1.67;;;;;;;;;;5008889;28;20246;-68
2022/12/29 03:16:45;;;;;;;3.75;1.40;;;;;;;;;;5007252;28;20561;-68
2022/12/29 03:19:28;;;;;;;4.30;1.55;;;;;;;;;;5009010;28;20205;-69
2022/12/29 03:22:30;;;;;;;3.05;1.20;;;;;;;;;;5012872;28;20213;-68
2022/12/29 03:25:04;;;;;;;3.35;1.10;;;;;;;;;;5003635;28;20248;-68
2022/12/29 03:27:34;;;;;;;5.13;0.85;;;;;;;;;;5007269;28;20199;-67
2022/12/29 03:30:04;;;;;;;3.60;0.50;;;;;;;;;;5005297;28;20652;-69
2022/12/29 03:32:46;;;;;;;2.95;0.50;;;;;;;;;;5006739;28;20191;-71
2022/12/29 03:35:14;;;;;;;1.30;0.60;;;;;;;;;;5008695;28;20190;-71
2022/12/29 03:37:45;;;;;;;2.97;0.50;;;;;;;;;;5006458;28;21555;-70
2022/12/29 03:40:11;;;;;;;0.82;0.35;;;;;;;;;;5000779;28;20209;-69
2022/12/29 03:42:38;;;;;;;1.65;0.60;;;;;;;;;;5000744;28;20622;-70
2022/12/29 03:45:06;;;;;;;1.58;0.60;;;;;;;;;;5000666;28;20607;-71
2022/12/29 03:47:31;;;;;;;2.78;0.90;;;;;;;;;;5014618;28;20198;-71
2022/12/29 03:49:57;;;;;;;1.67;0.85;;;;;;;;;;5009875;28;20273;-70
2022/12/29 03:52:22;;;;;;;2.05;0.60;;;;;;;;;;5006108;28;20553;-70
2022/12/29 03:54:48;;;;;;;2.35;0.93;;;;;;;;;;5015660;28;20277;-68
2022/12/29 03:57:13;;;;;;;3.45;1.20;;;;;;;;;;5000508;28;20199;-69
2022/12/29 03:59:38;;;;;;;3.92;1.17;;;;;;;;;;5002192;28;20756;-69
2022/12/29 04:02:04;;;;;;;5.97;1.83;;;;;;;;;;4997341;28;20198;-69
2022/12/29 04:04:29;;;;;;;2.25;1.30;;;;;;;;;;5006638;28;20265;-68
2022/12/29 04:06:54;;;;;;;3.53;1.27;;;;;;;;;;5000971;28;20199;-68
2022/12/29 04:09:20;;;;;;;2.72;1.20;;;;;;;;;;5008272;28;20213;-68
2022/12/29 04:11:45;;;;;;;2.10;1.13;;;;;;;;;;5007065;28;20219;-68
2022/12/29 04:14:10;;;;;;;1.65;1.10;;;;;;;;;;5009673;28;20201;-69
2022/12/29 04:16:38;;;;;;;2.78;1.20;;;;;;;;;;5007514;28;20196;-69
2022/12/29 04:19:04;;;;;;;3.13;1.17;;;;;;;;;;5007507;28;20198;-69
2022/12/29 04:21:29;;;;;;;1.85;1.13;;;;;;;;;;5006271;28;20702;-68
2022/12/29 04:23:55;;;;;;;2.38;1.00;;;;;;;;;;5009900;28;20261;-69
2022/12/29 04:26:20;;;;;;;5.18;1.20;;;;;;;;;;5001034;28;20298;-69
2022/12/29 04:28:46;;;;;;;3.67;0.80;;;;;;;;;;5001148;28;20187;-69
2022/12/29 04:31:11;;;;;;;4.65;1.33;;;;;;;;;;5001319;28;20229;-69
2022/12/29 04:33:36;;;;;;;5.75;1.40;;;;;;;;;;4995679;28;20199;-69
2022/12/29 04:36:02;;;;;;;2.10;1.25;;;;;;;;;;5000937;28;20663;-68
2022/12/29 04:38:27;;;;;;;3.63;0.90;;;;;;;;;;5003955;28;20198;-69
2022/12/29 04:40:53;;;;;;;6.88;1.00;;;;;;;;;;5007546;28;20479;-69
2022/12/29 04:43:19;;;;;;;2.85;1.00;;;;;;;;;;5000987;28;20222;-70
2022/12/29 04:45:45;;;;;;;3.67;0.75;;;;;;;;;;5004889;28;20191;-69
2022/12/29 04:48:11;;;;;;;2.85;0.90;;;;;;;;;;5006992;28;20202;-68
2022/12/29 04:50:36;;;;;;;2.03;0.88;;;;;;;;;;5005762;28;20360;-69
2022/12/29 04:53:02;;;;;;;4.97;1.20;;;;;;;;;;5004928;28;20185;-68
2022/12/29 04:55:27;;;;;;;1.45;0.95;;;;;;;;;;5003526;28;20195;-68
2022/12/29 04:57:53;;;;;;;2.72;0.80;;;;;;;;;;5015509;28;20382;-68
2022/12/29 05:00:18;;;;;;;6.15;1.42;;;;;;;;;;5004657;28;20703;-69
2022/12/29 05:02:45;;;;;;;2.60;0.80;;;;;;;;;;4986085;28;20224;-69
2022/12/29 05:05:10;;;;;;;5.20;0.90;;;;;;;;;;5015872;28;20186;-69
2022/12/29 05:07:36;;;;;;;2.63;0.88;;;;;;;;;;5005949;28;20249;-68
2022/12/29 05:10:01;;;;;;;3.38;0.80;;;;;;;;;;5005753;28;20190;-69
2022/12/29 05:12:30;;;;;;;3.33;1.02;;;;;;;;;;5006261;28;20499;-69
2022/12/29 05:14:56;;;;;;;3.65;0.70;;;;;;;;;;5010884;28;20194;-68
2022/12/29 05:17:21;;;;;;;3.83;0.77;;;;;;;;;;5012308;28;20667;-68
2022/12/29 05:19:47;;;;;;;5.35;0.75;;;;;;;;;;5018256;28;20791;-68
2022/12/29 05:22:12;;;;;;;2.15;0.93;;;;;;;;;;5007866;28;20278;-70
2022/12/29 05:24:37;;;;;;;3.97;0.75;;;;;;;;;;5007172;28;20225;-68
2022/12/29 05:27:03;;;;;;;1.67;0.68;;;;;;;;;;5013319;28;20655;-68
2022/12/29 05:29:28;;;;;;;2.47;0.80;;;;;;;;;;5011811;28;20221;-68
2022/12/29 05:31:53;;;;;;;3.83;0.77;;;;;;;;;;5007970;28;20526;-69
2022/12/29 05:34:19;;;;;;;3.72;0.65;;;;;;;;;;5019897;28;20198;-68
2022/12/29 05:36:44;;;;;;;3.08;0.70;;;;;;;;;;5007981;28;22958;-68
2022/12/29 05:39:10;;;;;;;3.20;0.73;;;;;;;;;;5012932;28;20194;-68
2022/12/29 05:41:35;;;;;;;4.63;0.73;;;;;;;;;;5009227;28;20834;-68
2022/12/29 05:44:00;;;;;;;3.00;0.80;;;;;;;;;;5004303;28;20186;-68
2022/12/29 05:46:26;;;;;;;2.53;0.73;;;;;;;;;;5000187;28;20199;-67
2022/12/29 05:48:51;;;;;;;2.22;0.85;;;;;;;;;;5007144;28;20577;-68
2022/12/29 05:51:17;;;;;;;3.95;0.63;;;;;;;;;;5006030;28;20219;-68
2022/12/29 05:53:42;;;;;;;7.18;1.00;;;;;;;;;;5003025;28;20220;-68
2022/12/29 05:56:07;;;;;;;6.32;1.02;;;;;;;;;;5011807;28;20673;-68
2022/12/29 05:58:33;;;;;;;5.50;0.90;;;;;;;;;;5009849;28;20195;-68
2022/12/29 06:00:58;;;;;;;4.53;0.70;;;;;;;;;;5002300;28;20214;-67
2022/12/29 06:03:23;;;;;;;7.80;1.27;;;;;;;;;;5004488;28;20643;-68
2022/12/29 06:05:49;;;;;;;7.88;1.17;;;;;;;;;;5015780;28;20194;-68
2022/12/29 06:08:14;;;;;;;6.07;1.00;;;;;;;;;;5020260;28;20208;-68
2022/12/29 06:10:39;;;;;;;8.05;0.93;;;;;;;;;;5018664;28;20314;-68
2022/12/29 06:13:05;;;;;;;8.00;1.13;;;;;;;;;;5019325;28;20610;-68
2022/12/29 06:15:32;;;;;;;9.90;1.70;;;;;;;;;;5024159;28;20198;-69
2022/12/29 06:17:58;;;;;;;9.63;1.40;;;;;;;;;;5003378;28;20258;-68
2022/12/29 06:20:23;;;;;;;8.10;1.20;;;;;;;;;;5008411;28;20220;-68
2022/12/29 06:22:49;;;;;;;5.90;0.90;;;;;;;;;;5013625;28;20254;-67
2022/12/29 06:25:14;;;;;;;7.80;1.05;;;;;;;;;;5008036;28;20631;-67
2022/12/29 06:27:40;;;;;;;6.78;1.77;;;;;;;;;;5012847;28;20187;-67
2022/12/29 06:30:06;;;;;;;7.97;1.13;;;;;;;;;;5018631;28;20533;-67
2022/12/29 06:32:31;;;;;;;7.80;1.02;;;;;;;;;;5020451;28;20228;-67
2022/12/29 06:34:57;;;;;;;7.00;1.15;;;;;;;;;;5018921;28;20186;-68
2022/12/29 06:37:22;;;;;;;8.50;1.10;;;;;;;;;;5023473;28;20670;-68
2022/12/29 06:39:47;;;;;;;6.03;1.02;;;;;;;;;;5015465;28;20229;-68
2022/12/29 06:42:13;;;;;;;6.57;0.90;;;;;;;;;;5018052;28;20337;-68
2022/12/29 06:44:38;;;;;;;8.77;1.13;;;;;;;;;;5017325;28;20198;-67
2022/12/29 06:47:03;;;;;;;2.17;1.00;;;;;;;;;;5017696;28;20183;-67
2022/12/29 06:49:29;;;;;;;5.82;0.90;;;;;;;;;;5017259;28;20538;-68
2022/12/29 06:51:54;;;;;;;6.50;0.85;;;;;;;;;;5007109;28;20207;-67
2022/12/29 06:54:19;;;;;;;4.45;0.85;;;;;;;;;;5005187;28;20299;-67
2022/12/29 06:56:45;;;;;;;3.75;0.80;;;;;;;;;;5009750;28;20209;-68
2022/12/29 06:59:10;;;;;;;4.25;0.95;;;;;;;;;;5004602;28;20789;-67
2022/12/29 07:01:36;;;;;;;2.90;0.90;;;;;;;;;;5002666;28;20282;-68
2022/12/29 07:04:02;;;;;;;4.00;1.00;;;;;;;;;;5007032;28;20198;-67
2022/12/29 07:06:28;;;;;;;4.85;0.88;;;;;;;;;;5011273;28;20261;-67
2022/12/29 07:08:54;;;;;;;3.70;1.10;;;;;;;;;;5007328;28;20214;-68
2022/12/29 07:11:21;;;;;;;5.40;1.27;;;;;;;;;;5012148;28;20372;-67
2022/12/29 07:13:46;;;;;;;5.82;1.23;;;;;;;;;;5013633;28;20202;-67
2022/12/29 07:16:12;;;;;;;6.60;0.93;;;;;;;;;;5011920;28;20198;-67
2022/12/29 07:18:37;;;;;;;6.82;1.10;;;;;;;;;;5015480;28;20661;-67
2022/12/29 07:21:03;;;;;;;5.63;0.90;;;;;;;;;;5007503;28;20195;-67
2022/12/29 07:23:29;;;;;;;6.38;0.90;;;;;;;;;;5005765;28;20313;-67
2022/12/29 07:26:06;;;;;;;5.35;1.00;;;;;;;;;;5015476;28;20311;-67
2022/12/29 07:28:32;;;;;;;8.90;1.17;;;;;;;;;;5013427;28;20194;-68
2022/12/29 07:30:58;;;;;;;6.22;1.10;;;;;;;;;;5010088;28;20499;-68
2022/12/29 07:33:24;;;;;;;10.70;1.45;;;;;;;;;;5019250;28;20266;-68
2022/12/29 07:35:50;;;;;;;6.40;1.35;;;;;;;;;;5020948;28;20657;-68
2022/12/29 07:38:16;;;;;;;9.63;1.75;;;;;;;;;;5012030;28;20251;-68
2022/12/29 07:40:42;;;;;;;6.13;0.90;;;;;;;;;;5020655;28;20186;-69
2022/12/29 07:43:07;;;;;;;6.28;1.73;;;;;;;;;;5020934;28;20201;-68
2022/12/29 07:45:32;;;;;;;7.43;1.65;;;;;;;;;;5020885;28;20888;-68
2022/12/29 07:47:58;;;;;;;7.70;1.30;;;;;;;;;;5015036;28;20190;-68
2022/12/29 07:50:23;;;;;;;8.50;1.25;;;;;;;;;;5021118;28;20201;-68
2022/12/29 07:52:48;;;;;;;5.97;1.30;;;;;;;;;;5023312;28;20193;-68
2022/12/29 07:55:15;;;;;;;4.70;0.80;;;;;;;;;;5017233;28;20224;-68
2022/12/29 07:57:41;;;;;;;8.85;1.40;;;;;;;;;;5016412;28;20240;-69
2022/12/29 08:00:07;;;;;;;10.82;1.30;;;;;;;;;;5017607;28;20603;-68
2022/12/29 08:02:33;;;;;;;6.70;1.20;;;;;;;;;;5008393;28;20252;-68
2022/12/29 08:04:58;;;;;;;10.35;1.35;;;;;;;;;;5011691;28;20443;-68
2022/12/29 08:07:23;;;;;;;8.20;0.95;;;;;;;;;;5012649;28;20250;-68
2022/12/29 08:09:49;;;;;;;10.50;1.30;;;;;;;;;;5012366;28;20286;-68
2022/12/29 08:12:14;;;;;;;6.05;1.00;;;;;;;;;;5018825;28;20222;-70
2022/12/29 08:14:40;;;;;;;6.60;1.00;;;;;;;;;;5005972;28;21530;-68
2022/12/29 08:17:05;;;;;;;4.60;0.98;;;;;;;;;;5014770;28;20532;-68
2022/12/29 08:19:30;;;;;;;6.85;1.33;;;;;;;;;;5014132;28;20239;-68
2022/12/29 08:21:56;;;;;;;6.63;2.08;;;;;;;;;;5012010;28;20190;-67
2022/12/29 08:24:21;;;;;;;9.57;1.40;;;;;;;;;;5005380;28;20238;-69
2022/12/29 08:26:46;;;;;;;11.38;1.42;;;;;;;;;;5008116;28;20670;-69
2022/12/29 08:29:12;;;;;;;15.05;1.40;;;;;;;;;;5006599;28;20284;-71
2022/12/29 08:31:37;;;;;;;8.82;1.90;;;;;;;;;;5018988;28;20639;-71
2022/12/29 08:34:03;;;;;;;11.67;1.57;;;;;;;;;;5021285;28;20183;-71
2022/12/29 08:36:30;;;;;;;5.20;1.33;;;;;;;;;;5019630;28;20221;-69
2022/12/29 08:38:56;;;;;;;6.55;1.20;;;;;;;;;;5016697;28;20190;-69
2022/12/29 08:41:21;;;;;;;8.68;1.73;;;;;;;;;;5021336;28;20265;-70
2022/12/29 08:43:48;;;;;;;8.88;1.60;;;;;;;;;;5018721;28;20544;-70
2022/12/29 08:46:15;;;;;;;7.60;1.80;;;;;;;;;;5022662;28;20247;-70
2022/12/29 08:48:40;;;;;;;4.85;1.00;;;;;;;;;;5020052;28;20202;-69
2022/12/29 08:51:05;;;;;;;8.50;1.48;;;;;;;;;;5016887;28;20210;-69
2022/12/29 08:53:31;;;;;;;15.30;1.87;;;;;;;;;;5015397;28;20400;-69
2022/12/29 08:55:58;;;;;;;6.27;1.37;;;;;;;;;;5015472;28;20876;-68
2022/12/29 08:58:25;;;;;;;8.83;1.30;;;;;;;;;;5010509;28;20643;-68
2022/12/29 09:00:55;;;;;;;9.55;1.58;;;;;;;;;;5002561;28;20199;-68
2022/12/29 09:03:21;;;;;;;8.05;1.40;;;;;;;;;;5008388;28;20175;-68
2022/12/29 09:05:49;;;;;;;7.70;1.63;;;;;;;;;;5014170;28;20669;-68
2022/12/29 09:08:14;;;;;;;4.80;1.30;;;;;;;;;;4998545;28;20230;-68
2022/12/29 09:10:39;;;;;;;9.65;2.08;;;;;;;;;;5017040;28;20219;-67
2022/12/29 09:13:05;;;;;;;11.60;1.42;;;;;;;;;;5004977;28;20226;-67
2022/12/29 09:15:30;;;;;;;11.90;1.45;;;;;;;;;;5001250;28;20193;-68
2022/12/29 09:17:55;;;;;;;10.13;1.40;;;;;;;;;;5005983;28;20670;-69
2022/12/29 09:20:21;;;;;;;12.57;1.60;;;;;;;;;;5004911;28;20197;-67
2022/12/29 09:22:47;;;;;;;7.63;1.17;;;;;;;;;;5005484;28;20298;-68
2022/12/29 09:25:13;;;;;;;12.77;1.50;;;;;;;;;;5012006;28;20277;-68
2022/12/29 09:27:38;;;;;;;8.10;2.08;;;;;;;;;;5014215;28;20202;-67
2022/12/29 09:30:06;;;;;;;8.10;1.45;;;;;;;;;;5001217;28;20684;-68
2022/12/29 09:32:33;;;;;;;12.30;1.65;;;;;;;;;;5004141;28;20702;-68
2022/12/29 09:34:58;;;;;;;11.18;1.42;;;;;;;;;;5004327;28;20194;-68
2022/12/29 09:37:24;;;;;;;9.40;2.28;;;;;;;;;;5004166;28;20199;-68
2022/12/29 09:39:49;;;;;;;6.88;1.00;;;;;;;;;;5003384;28;20567;-68
2022/12/29 09:42:23;;;;;;;7.73;1.57;;;;;;;;;;5004806;28;20288;-67
2022/12/29 09:45:08;;;;;;;9.30;1.35;;;;;;;;;;5005240;28;20244;-68
2022/12/29 09:47:34;;;;;;;9.23;1.77;;;;;;;;;;5005497;28;20470;-68
2022/12/29 09:50:30;;;;;;;8.00;1.00;;;;;;;;;;5005950;28;20252;-67
2022/12/29 09:53:27;;;;;;;13.15;1.45;;;;;;;;;;5003773;28;20820;-67
2022/12/29 09:55:56;;;;;;;12.68;1.75;;;;;;;;;;5002870;28;20202;-68
2022/12/29 09:58:29;;;;;;;14.07;2.05;;;;;;;;;;5005659;28;20199;-68
2022/12/29 10:01:28;;;;;;;9.40;1.40;;;;;;;;;;4999812;28;20207;-68
2022/12/29 10:03:56;;;;;;;8.43;1.60;;;;;;;;;;5004777;28;20222;-68
2022/12/29 10:06:27;;;;;;;8.07;1.63;;;;;;;;;;5016599;28;20194;-67
2022/12/29 10:09:19;;;;;;;10.20;1.83;;;;;;;;;;5014997;28;20197;-69
2022/12/29 10:12:02;;;;;;;7.13;1.42;;;;;;;;;;5012917;28;20246;-68
2022/12/29 10:14:31;;;;;;;9.35;1.23;;;;;;;;;;5000496;28;20191;-68
2022/12/29 10:17:21;;;;;;;9.10;1.50;;;;;;;;;;5012305;28;20210;-69
2022/12/29 10:19:52;;;;;;;10.90;1.80;;;;;;;;;;5008600;28;20607;-68
2022/12/29 10:22:35;;;;;;;6.45;1.35;;;;;;;;;;5012181;28;20197;-68
2022/12/29 10:25:03;;;;;;;15.65;2.30;;;;;;;;;;5013330;28;20194;-68
2022/12/29 10:27:32;;;;;;;11.15;1.38;;;;;;;;;;5004488;28;20265;-68
2022/12/29 10:30:00;;;;;;;10.10;2.30;;;;;;;;;;5000379;28;20204;-68
2022/12/29 10:32:37;;;;;;;11.40;2.45;;;;;;;;;;5009432;28;20222;-68
2022/12/29 10:35:13;;;;;;;11.98;2.40;;;;;;;;;;5015413;28;20194;-68
2022/12/29 10:37:45;;;;;;;13.73;2.90;;;;;;;;;;5011625;28;20246;-68
2022/12/29 10:40:29;;;;;;;10.30;1.48;;;;;;;;;;5022523;28;20190;-68
2022/12/29 10:42:57;;;;;;;9.43;1.30;;;;;;;;;;5026512;28;20224;-68
2022/12/29 10:45:29;;;;;;;7.35;1.80;;;;;;;;;;5017850;28;20186;-68
2022/12/29 10:48:18;;;;;;;10.43;1.55;;;;;;;;;;5021439;28;20276;-68
2022/12/29 10:50:43;;;;;;;4.82;1.13;;;;;;;;;;5014934;28;20234;-68
2022/12/29 10:53:20;;;;;;;7.78;1.42;;;;;;;;;;5015766;28;20672;-68
2022/12/29 10:55:46;;;;;;;9.88;1.48;;;;;;;;;;5016119;28;20218;-68
2022/12/29 10:58:14;;;;;;;5.97;1.20;;;;;;;;;;5021767;28;20199;-68
2022/12/29 11:00:51;;;;;;;8.82;1.20;;;;;;;;;;5022067;28;20306;-67
2022/12/29 11:03:26;;;;;;;8.38;1.40;;;;;;;;;;5006640;28;20230;-67
2022/12/29 11:06:15;;;;;;;8.38;1.58;;;;;;;;;;5015163;28;20211;-68
2022/12/29 11:08:57;;;;;;;5.45;1.38;;;;;;;;;;5021556;28;20187;-68
2022/12/29 11:11:32;;;;;;;9.60;1.60;;;;;;;;;;5010130;28;20238;-67
2022/12/29 11:14:17;;;;;;;10.93;1.33;;;;;;;;;;5011518;28;20182;-67
2022/12/29 11:16:44;;;;;;;9.63;1.60;;;;;;;;;;5001034;28;20851;-68
2022/12/29 11:19:24;;;;;;;8.35;1.27;;;;;;;;;;5004955;28;20646;-67
2022/12/29 11:21:51;;;;;;;10.25;1.48;;;;;;;;;;5001998;28;20236;-68
2022/12/29 11:24:26;;;;;;;6.00;0.90;;;;;;;;;;5003050;28;20333;-67
2022/12/29 11:26:57;;;;;;;4.13;0.98;;;;;;;;;;4999216;28;20194;-68
2022/12/29 11:29:37;;;;;;;8.32;1.00;;;;;;;;;;5007777;28;20184;-67
2022/12/29 11:32:12;;;;;;;7.22;1.17;;;;;;;;;;5014626;28;20349;-68
2022/12/29 11:34:37;;;;;;;7.78;1.38;;;;;;;;;;5010737;28;20500;-68
2022/12/29 11:37:14;;;;;;;8.15;1.45;;;;;;;;;;5010159;28;20198;-68
2022/12/29 11:39:59;;;;;;;5.93;1.33;;;;;;;;;;5012393;28;20194;-67
2022/12/29 11:42:50;;;;;;;3.90;1.40;;;;;;;;;;5020589;28;20197;-68
2022/12/29 11:45:19;;;;;;;6.70;1.10;;;;;;;;;;5013498;28;20401;-68
2022/12/29 11:47:48;;;;;;;7.57;1.27;;;;;;;;;;4322314;28;10000809;-67
2022/12/29 11:50:29;;;;;;;5.30;1.35;;;;;;;;;;5002968;28;20191;-68
2022/12/29 11:53:04;;;;;;;6.40;1.23;;;;;;;;;;5002041;28;20305;-68
2022/12/29 11:55:30;;;;;;;3.67;1.23;;;;;;;;;;5006777;28;20229;-67
2022/12/29 11:58:01;;;;;;;5.32;1.20;;;;;;;;;;5011729;28;20199;-68
2022/12/29 12:00:28;;;;;;;4.95;1.55;;;;;;;;;;5003528;28;20202;-68
2022/12/29 12:03:03;;;;;;;9.80;1.90;;;;;;;;;;5006009;28;20182;-68
2022/12/29 12:05:37;;;;;;;7.93;1.73;;;;;;;;;;4999905;28;20252;-69
2022/12/29 12:08:18;;;;;;;7.38;1.77;;;;;;;;;;5012727;28;20253;-69
2022/12/29 12:11:03;;;;;;;9.05;2.28;;;;;;;;;;4987399;28;20218;-68
2022/12/29 12:13:38;;;;;;;11.52;2.38;;;;;;;;;;5005175;28;20206;-68
2022/12/29 12:16:11;;;;;;;8.52;3.42;;;;;;;;;;5009343;28;20190;-68
2022/12/29 12:18:42;;;;;;;7.50;2.95;;;;;;;;;;5007272;28;20198;-68
2022/12/29 12:21:17;;;;;;;11.88;2.70;;;;;;;;;;5004414;28;20203;-68
2022/12/29 12:24:08;;;;;;;10.50;1.90;;;;;;;;;;5004644;28;20238;-68
2022/12/29 12:26:48;;;;;;;10.38;2.40;;;;;;;;;;5006102;28;20203;-68
2022/12/29 12:29:20;;;;;;;11.50;2.75;;;;;;;;;;5007853;28;20191;-68
2022/12/29 12:32:09;;;;;;;13.23;2.47;;;;;;;;;;5006636;28;20213;-68
2022/12/29 12:34:44;;;;;;;10.70;2.17;;;;;;;;;;4999845;28;20237;-68
2022/12/29 12:37:50;;;;;;;9.07;2.40;;;;;;;;;;5001282;28;20229;-68
2022/12/29 12:40:39;;;;;;;13.32;3.10;;;;;;;;;;5006060;28;20602;-67
2022/12/29 12:43:24;;;;;;;13.85;2.30;;;;;;;;;;5001761;28;20183;-66
2022/12/29 12:46:10;;;;;;;13.70;2.40;;;;;;;;;;5006306;28;20600;-68
2022/12/29 12:48:55;;;;;;;8.27;2.90;;;;;;;;;;5005573;28;20198;-66
2022/12/29 12:51:36;;;;;;;11.13;2.30;;;;;;;;;;5006761;28;20297;-66
2022/12/29 12:54:38;;;;;;;11.57;2.00;;;;;;;;;;5014415;28;20199;-67
2022/12/29 12:57:22;;;;;;;12.95;2.63;;;;;;;;;;5011289;28;20201;-66
2022/12/29 13:00:05;;;;;;;11.38;2.30;;;;;;;;;;5008252;28;20214;-67
2022/12/29 13:03:00;;;;;;;8.25;2.10;;;;;;;;;;5006845;28;20186;-67
2022/12/29 13:05:54;;;;;;;11.85;2.55;;;;;;;;;;5002716;28;20198;-67
2022/12/29 13:08:34;;;;;;;13.13;2.50;;;;;;;;;;4997709;28;20203;-67
2022/12/29 13:11:29;;;;;;;7.70;2.05;;;;;;;;;;5015091;28;20233;-66
2022/12/29 13:14:12;;;;;;;17.15;5.07;;;;;;;;;;5004476;28;20278;-67
2022/12/29 13:16:57;;;;;;;9.65;2.20;;;;;;;;;;5010628;28;20673;-68
2022/12/29 13:19:36;;;;;;;10.73;2.03;;;;;;;;;;5002484;28;20805;-68
2022/12/29 13:22:36;;;;;;;13.15;2.60;;;;;;;;;;5003402;28;20519;-68
2022/12/29 13:25:19;;;;;;;9.52;2.22;;;;;;;;;;5009955;28;20293;-67
2022/12/29 13:28:07;;;;;;;10.35;2.50;;;;;;;;;;5009324;28;20193;-67
2022/12/29 13:30:40;;;;;;;10.48;1.80;;;;;;;;;;5003205;28;20198;-68
2022/12/29 13:33:14;;;;;;;9.43;1.92;;;;;;;;;;5006806;28;20191;-67
2022/12/29 13:36:02;;;;;;;8.60;1.73;;;;;;;;;;5012604;28;20680;-67
2022/12/29 13:38:33;;;;;;;8.00;2.53;;;;;;;;;;5004912;28;20269;-67
2022/12/29 13:41:05;;;;;;;7.82;1.95;;;;;;;;;;5006321;28;20244;-68
2022/12/29 13:43:33;;;;;;;9.35;2.10;;;;;;;;;;5008217;28;20216;-67
2022/12/29 13:46:06;;;;;;;9.40;3.08;;;;;;;;;;5019988;28;20186;-67
2022/12/29 13:48:39;;;;;;;12.98;3.00;;;;;;;;;;5017653;28;20217;-67
2022/12/29 13:51:05;;;;;;;13.02;3.20;;;;;;;;;;5021091;28;20238;-68
2022/12/29 13:54:08;;;;;;;9.13;2.70;;;;;;;;;;5017921;28;20215;-67
2022/12/29 13:56:47;;;;;;;8.13;2.75;;;;;;;;;;5003427;28;20190;-67
2022/12/29 13:59:41;;;;;;;16.63;4.13;;;;;;;;;;4984021;28;20294;-68
2022/12/29 14:02:22;;;;;;;15.60;3.28;;;;;;;;;;4997470;28;20225;-67
2022/12/29 14:05:22;;;;;;;11.85;3.53;;;;;;;;;;5017899;28;20197;-68
2022/12/29 14:07:56;;;;;;;15.63;4.53;;;;;;;;;;5004943;28;20284;-67
2022/12/29 14:10:33;;;;;;;14.68;4.10;;;;;;;;;;5011514;28;20197;-68
2022/12/29 14:13:13;;;;;;;13.70;3.55;;;;;;;;;;5022729;28;20182;-68
2022/12/29 14:15:41;;;;;;;20.67;3.83;;;;;;;;;;5024717;28;20190;-68
2022/12/29 14:18:19;;;;;;;11.70;3.38;;;;;;;;;;5023563;28;20225;-67
2022/12/29 14:21:00;;;;;;;11.68;3.20;;;;;;;;;;5019395;28;20186;-68
2022/12/29 14:23:37;;;;;;;12.82;3.80;;;;;;;;;;5007146;28;20794;-68
2022/12/29 14:26:05;;;;;;;17.23;3.75;;;;;;;;;;5015383;28;20197;-68
2022/12/29 14:28:32;;;;;;;8.63;3.05;;;;;;;;;;5016032;28;20626;-68
2022/12/29 14:31:00;;;;;;;8.32;3.00;;;;;;;;;;5006701;28;20245;-68
2022/12/29 14:33:28;;;;;;;12.57;3.35;;;;;;;;;;5006242;28;20498;-68
2022/12/29 14:35:55;;;;;;;11.38;3.70;;;;;;;;;;5006122;28;20241;-67
2022/12/29 14:38:26;;;;;;;11.65;3.17;;;;;;;;;;5007296;28;20209;-67
2022/12/29 14:40:53;;;;;;;9.70;3.00;;;;;;;;;;5008332;28;20221;-68
2022/12/29 14:43:22;;;;;;;16.85;3.70;;;;;;;;;;5007017;28;20195;-67
2022/12/29 14:46:00;;;;;;;11.02;3.30;;;;;;;;;;5007632;28;20282;-67
2022/12/29 14:48:44;;;;;;;12.63;3.30;;;;;;;;;;5008367;28;20208;-68
2022/12/29 14:51:27;;;;;;;14.77;3.20;;;;;;;;;;5010661;28;20224;-67
2022/12/29 14:53:52;;;;;;;18.90;3.35;;;;;;;;;;5009042;28;20238;-67
2022/12/29 14:56:24;;;;;;;16.60;3.63;;;;;;;;;;5010525;28;20246;-68
2022/12/29 14:59:03;;;;;;;12.15;3.58;;;;;;;;;;5008190;28;20209;-68
2022/12/29 15:01:32;;;;;;;12.57;3.22;;;;;;;;;;5004809;28;21605;-67
2022/12/29 15:04:03;;;;;;;13.90;3.97;;;;;;;;;;5008157;28;20191;-68
2022/12/29 15:06:30;;;;;;;9.45;3.50;;;;;;;;;;5009908;28;20655;-67
2022/12/29 15:09:06;;;;;;;15.98;3.10;;;;;;;;;;5009097;28;20213;-67
2022/12/29 15:11:47;;;;;;;14.65;3.83;;;;;;;;;;5009611;28;20211;-67
2022/12/29 15:14:34;;;;;;;12.68;3.40;;;;;;;;;;5014412;28;20191;-67
2022/12/29 15:17:00;;;;;;;13.02;3.20;;;;;;;;;;5008899;28;20559;-67
2022/12/29 15:19:27;;;;;;;7.22;2.90;;;;;;;;;;5012167;28;20210;-67
2022/12/29 15:21:54;;;;;;;12.23;3.50;;;;;;;;;;5010876;28;20182;-68
2022/12/29 15:24:20;;;;;;;13.32;2.58;;;;;;;;;;5008757;28;20223;-68
2022/12/29 15:26:48;;;;;;;15.60;3.10;;;;;;;;;;5014326;28;20198;-67
2022/12/29 15:29:32;;;;;;;16.55;3.78;;;;;;;;;;5015986;28;20217;-67
2022/12/29 15:32:00;;;;;;;8.95;2.90;;;;;;;;;;5011369;28;20720;-67
2022/12/29 15:34:30;;;;;;;11.98;2.60;;;;;;;;;;5011824;28;20201;-68
2022/12/29 15:36:55;;;;;;;7.57;1.80;;;;;;;;;;5011641;28;20197;-67
2022/12/29 15:39:30;;;;;;;8.35;1.83;;;;;;;;;;5014227;28;20760;-67